| time (UTC) | temp C | wind direction | speed KPH | gust KPH | rain 1hr cm | rain 24hr cm | rain mn cm | humidity % | barometer mb |
| 20260906200051 | 29 | 92 | 6.4 | 22.5 | 0.00 | 1.78 | 1.78 | 63 | 923.3 |
| 20260906194555 | 28 | 103 | 6.4 | 16.1 | 0.00 | 1.78 | 1.78 | 65 | 923.6 |
| 20260906193045 | 28 | 123 | 8.0 | 25.7 | 0.00 | 1.78 | 1.78 | 70 | 923.7 |
| 20260906191558 | 27 | 88 | 8.0 | 22.5 | 0.00 | 1.78 | 1.78 | 73 | 923.8 |
| 20260906190038 | 26 | 77 | 8.0 | 22.5 | 0.00 | 1.78 | 1.78 | 74 | 923.9 |
| 20260906184545 | 26 | 92 | 9.7 | 24.1 | 0.00 | 1.78 | 1.78 | 76 | 924.2 |
| 20260906183036 | 25 | 360 | 14.5 | 30.6 | 0.00 | 1.78 | 1.78 | 78 | 924.3 |
| 20260906181551 | 24 | 92 | 16.1 | 32.2 | 0.00 | 1.78 | 1.78 | 81 | 924.4 |
| 20260906180031 | 24 | 82 | 12.9 | 27.4 | 0.00 | 1.78 | 1.78 | 83 | 924.7 |
| 20260906174530 | 24 | 87 | 12.9 | 29.0 | 0.00 | 1.78 | 1.78 | 83 | 925.0 |
| 20260906173031 | 23 | 83 | 12.9 | 25.7 | 0.00 | 1.78 | 1.78 | 86 | 925.3 |
| 20260906171535 | 22 | 65 | 11.3 | 20.9 | 0.00 | 1.78 | 1.78 | 89 | 925.5 |
| 20260906170027 | 22 | 69 | 14.5 | 20.9 | 0.00 | 1.78 | 1.78 | 90 | 925.8 |
| 20260906164527 | 21 | 92 | 11.3 | 17.7 | 0.03 | 1.78 | 1.78 | 92 | 925.7 |
| 20260906163027 | 21 | 101 | 3.2 | 9.7 | 0.08 | 1.78 | 1.78 | 92 | 925.5 |
| 20260906161529 | 21 | 98 | 8.0 | 16.1 | 0.15 | 1.78 | 1.78 | 92 | 925.4 |
| 20260906160025 | 21 | 88 | 9.7 | 17.7 | 0.15 | 1.78 | 1.78 | 92 | 925.2 |
| 20260906154524 | 20 | 94 | 3.2 | 11.3 | 0.18 | 1.75 | 1.75 | 92 | 925.3 |
| 20260906153023 | 20 | 139 | 1.6 | 4.8 | 0.13 | 1.70 | 1.70 | 92 | 925.7 |
| 20260906151522 | 20 | 160 | 1.6 | 9.7 | 0.10 | 1.63 | 1.63 | 92 | 926.1 |
| 20260906150028 | 20 | 80 | 3.2 | 12.9 | 0.10 | 1.60 | 1.60 | 92 | 926.2 |
| 20260906144521 | 20 | 360 | 4.8 | 16.1 | 0.10 | 1.57 | 1.57 | 92 | 926.2 |
| 20260906143021 | 20 | 98 | 8.0 | 19.3 | 0.23 | 1.57 | 1.57 | 92 | 926.5 |
| 20260906141520 | 20 | 89 | 4.8 | 12.9 | 0.25 | 1.52 | 1.52 | 91 | 926.6 |
| 20260906140021 | 20 | 103 | 6.4 | 11.3 | 0.41 | 1.50 | 1.50 | 91 | 926.7 |
| 20260906134516 | 20 | 49 | 0.0 | 4.8 | 0.56 | 1.42 | 1.42 | 91 | 926.5 |
| 20260906133016 | 20 | 49 | 0.0 | 0.0 | 0.66 | 1.35 | 1.35 | 90 | 926.7 |
| 20260906131513 | 20 | 49 | 0.0 | 0.0 | 1.02 | 1.27 | 1.27 | 90 | 926.6 |
| 20260906130011 | 20 | 46 | 0.0 | 4.8 | 0.99 | 1.07 | 1.07 | 90 | 926.4 |
| 20260906124509 | 21 | 15 | 1.6 | 6.4 | 0.86 | 0.89 | 0.89 | 89 | 926.2 |
| 20260906123012 | 21 | 46 | 1.6 | 12.9 | 0.66 | 0.66 | 0.66 | 87 | 926.3 |
| 20260906121503 | 21 | 311 | 6.4 | 27.4 | 0.25 | 0.25 | 0.25 | 86 | 926.4 |
| 20260906120100 | 21 | 321 | 9.7 | 17.7 | 0.08 | 0.08 | 0.08 | 83 | 925.6 |
| 20260906114612 | 22 | 360 | 4.8 | 8.0 | 0.03 | 0.03 | 0.03 | 79 | 924.7 |
| 20260906113106 | 22 | 267 | 4.8 | 9.7 | 0.00 | 0.00 | 0.00 | 77 | 924.0 |
| 20260906111552 | 22 | 273 | 0.0 | 3.2 | 0.00 | 0.00 | 0.00 | 78 | 923.9 |
| 20260906110049 | 22 | 273 | 3.2 | 6.4 | 0.00 | 0.00 | 0.00 | 77 | 923.8 |
| 20260906104549 | 22 | 179 | 0.0 | 6.4 | 0.00 | 0.00 | 0.00 | 74 | 923.3 |
| 20260906103047 | 22 | 171 | 3.2 | 9.7 | 0.00 | 0.00 | 0.00 | 74 | 923.1 |
| 20260906101546 | 22 | 77 | 0.0 | 1.6 | 0.00 | 0.00 | 0.00 | 74 | 923.3 |
| 20260906100045 | 22 | 77 | 0.0 | 6.4 | 0.00 | 0.00 | 0.00 | 74 | 923.2 |
| 20260906094550 | 22 | 75 | 0.0 | 4.8 | 0.00 | 0.00 | 0.00 | 74 | 923.4 |
| 20260906093042 | 23 | 44 | 1.6 | 8.0 | 0.00 | 0.00 | 0.00 | 74 | 923.5 |
| 20260906091545 | 23 | 134 | 0.0 | 8.0 | 0.00 | 0.00 | 0.00 | 73 | 923.1 |
| 20260906090038 | 23 | 135 | 0.0 | 6.4 | 0.00 | 0.00 | 0.00 | 72 | 922.9 |
| 20260906084537 | 23 | 128 | 0.0 | 9.7 | 0.00 | 0.00 | 0.00 | 70 | 922.6 |
| 20260906083036 | 24 | 128 | 1.6 | 8.0 | 0.00 | 0.00 | 0.00 | 68 | 922.8 |
| 20260906081540 | 24 | 151 | 6.4 | 17.7 | 0.00 | 0.00 | 0.00 | 68 | 922.6 |
| 20260906080036 | 24 | 360 | 3.2 | 17.7 | 0.00 | 0.00 | 0.00 | 69 | 922.8 |
| 20260906074534 | 24 | 144 | 3.2 | 6.4 | 0.00 | 0.00 | 0.00 | 69 | 922.8 |
| 20260906073041 | 25 | 140 | 3.2 | 16.1 | 0.00 | 0.00 | 0.00 | 67 | 922.9 |
| 20260906071533 | 25 | 153 | 3.2 | 17.7 | 0.00 | 0.00 | 0.00 | 65 | 922.9 |
| 20260906070030 | 25 | 360 | 4.8 | 19.3 | 0.00 | 0.00 | 0.00 | 67 | 923.0 |
| 20260906064529 | 24 | 155 | 8.0 | 16.1 | 0.00 | 0.00 | 0.00 | 70 | 923.0 |
| 20260906063022 | 23 | 140 | 4.8 | 16.1 | 0.00 | 0.00 | 0.00 | 72 | 922.9 |
| 20260906061518 | 23 | 141 | 1.6 | 12.9 | 0.00 | 0.00 | 0.00 | 72 | 923.0 |
| 20260906060013 | 23 | 142 | 1.6 | 8.0 | 0.00 | 0.00 | 0.00 | 71 | 922.9 |
| 20260906054509 | 23 | 127 | 3.2 | 11.3 | 0.00 | 0.00 | 0.00 | 72 | 922.5 |
| 20260906053005 | 23 | 126 | 3.2 | 12.9 | 0.00 | 0.00 | 0.00 | 74 | 922.7 |
| 20260906051602 | 23 | 116 | 1.6 | 9.7 | 0.00 | 0.00 | 0.00 | 73 | 922.6 |
| 20260906050111 | 23 | 126 | 3.2 | 11.3 | 0.00 | 0.00 | 0.00 | 73 | 922.6 |
| 20260906044555 | 24 | 126 | 1.6 | 6.4 | 0.00 | 0.00 | 0.00 | 72 | 922.5 |
| 20260906043057 | 24 | 130 | 0.0 | 8.0 | 0.00 | 0.00 | 0.00 | 72 | 922.6 |
| 20260906041554 | 24 | 134 | 3.2 | 8.0 | 0.00 | 0.00 | 0.00 | 71 | 922.8 |
| 20260906040053 | 24 | 110 | 0.0 | 4.8 | 0.00 | 0.00 | 0.00 | 70 | 923.0 |
| 20260906034559 | 25 | 103 | 0.0 | 6.4 | 0.00 | 0.00 | 0.00 | 69 | 922.9 |
| 20260906033053 | 25 | 136 | 0.0 | 9.7 | 0.00 | 0.00 | 0.00 | 68 | 922.7 |
| 20260906031616 | 25 | 136 | 1.6 | 16.1 | 0.00 | 0.00 | 0.00 | 67 | 922.5 |
| 20260906030052 | 25 | 128 | 1.6 | 6.4 | 0.00 | 0.00 | 0.00 | 66 | 922.4 |
| 20260906024556 | 25 | 126 | 1.6 | 4.8 | 0.00 | 0.00 | 0.00 | 65 | 922.4 |
| 20260906023106 | 26 | 136 | 0.0 | 6.4 | 0.00 | 0.00 | 0.00 | 64 | 922.4 |
| 20260906021549 | 26 | 134 | 1.6 | 6.4 | 0.00 | 0.00 | 0.00 | 63 | 922.2 |
| 20260906020055 | 26 | 116 | 1.6 | 8.0 | 0.00 | 0.00 | 0.00 | 62 | 921.8 |
| 20260906014549 | 26 | 126 | 3.2 | 11.3 | 0.00 | 0.00 | 0.00 | 61 | 921.6 |
| 20260906013048 | 27 | 108 | 4.8 | 11.3 | 0.00 | 0.00 | 0.00 | 61 | 921.6 |
| 20260906011552 | 27 | 136 | 4.8 | 16.1 | 0.00 | 0.00 | 0.00 | 59 | 921.4 |
| 20260906010047 | 28 | 105 | 6.4 | 17.7 | 0.00 | 0.00 | 0.00 | 57 | 921.4 |
| 20260906004552 | 28 | 130 | 6.4 | 16.1 | 0.00 | 0.00 | 0.00 | 56 | 921.5 |
| 20260906003050 | 28 | 90 | 4.8 | 14.5 | 0.00 | 0.00 | 0.00 | 54 | 921.5 |
| 20260906001546 | 28 | 126 | 6.4 | 16.1 | 0.00 | 0.00 | 0.00 | 54 | 921.4 |
| 20260906000047 | 28 | 94 | 6.4 | 19.3 | 0.00 | 0.00 | 0.00 | 56 | 921.6 |
| 20260905234543 | 29 | 61 | 9.7 | 22.5 | 0.00 | 0.00 | 0.00 | 55 | 921.7 |
| 20260905233048 | 30 | 104 | 9.7 | 22.5 | 0.00 | 0.00 | 0.00 | 53 | 921.6 |
| 20260905231542 | 30 | 103 | 9.7 | 20.9 | 0.00 | 0.00 | 0.00 | 54 | 921.5 |
| 20260905230041 | 30 | 104 | 11.3 | 29.0 | 0.00 | 0.00 | 0.00 | 54 | 921.6 |
| 20260905224541 | 31 | 79 | 11.3 | 22.5 | 0.00 | 0.00 | 0.00 | 50 | 921.9 |
| 20260905223041 | 32 | 140 | 9.7 | 25.7 | 0.00 | 0.00 | 0.00 | 45 | 921.8 |
| 20260905221556 | 33 | 97 | 4.8 | 22.5 | 0.00 | 0.00 | 0.00 | 43 | 921.3 |
| 20260905220041 | 34 | 83 | 6.4 | 20.9 | 0.00 | 0.00 | 0.00 | 43 | 921.0 |
| 20260905214538 | 33 | 109 | 8.0 | 25.7 | 0.00 | 0.00 | 0.00 | 45 | 920.9 |
| 20260905213036 | 33 | 88 | 12.9 | 30.6 | 0.00 | 0.00 | 0.00 | 44 | 921.2 |
| 20260905211535 | 34 | 90 | 14.5 | 29.0 | 0.00 | 0.00 | 0.00 | 40 | 921.2 |
| 20260905210037 | 35 | 81 | 11.3 | 24.1 | 0.00 | 0.00 | 0.00 | 39 | 921.5 |
| 20260905204536 | 36 | 69 | 11.3 | 24.1 | 0.00 | 0.00 | 0.00 | 40 | 921.6 |
| 20260905203032 | 36 | 105 | 9.7 | 25.7 | 0.00 | 0.00 | 0.00 | 40 | 921.7 |
| 20260905201532 | 36 | 136 | 6.4 | 19.3 | 0.00 | 0.00 | 0.00 | 40 | 921.9 |